Time;durP1;ratioP1;P1;durP2;ratioP2;P2;SDS_P1;SDS_P2;PMS_P1;PMS_P2;Temp;Humidity;BMP_temperature;BMP_pressure;BME280_temperature;BME280_humidity;BME280_pressure;Samples;Min_cycle;Max_cycle;Signal;HPM_P1;HPM_P2
2021/09/16 00:01:27;;;;;;;15.02;13.52;;;;;;;;;;5038122;28;20474;-62
2021/09/16 00:03:53;;;;;;;15.50;14.00;;;;;;;;;;5036603;28;20025;-64
2021/09/16 00:06:18;;;;;;;16.88;15.10;;;;;;;;;;5035847;28;20048;-64
2021/09/16 00:08:43;;;;;;;14.98;13.45;;;;;;;;;;5038905;28;20025;-64
2021/09/16 00:11:09;;;;;;;15.48;13.82;;;;;;;;;;5036432;28;20017;-62
2021/09/16 00:13:34;;;;;;;15.50;13.93;;;;;;;;;;5035497;28;20637;-63
2021/09/16 00:15:59;;;;;;;19.20;14.00;;;;;;;;;;5034742;28;20031;-62
2021/09/16 00:18:24;;;;;;;17.85;16.00;;;;;;;;;;5038070;28;20021;-62
2021/09/16 00:20:50;;;;;;;18.27;15.38;;;;;;;;;;5037061;28;20029;-62
2021/09/16 00:23:15;;;;;;;16.35;14.77;;;;;;;;;;5037667;28;20032;-60
2021/09/16 00:25:41;;;;;;;16.95;15.15;;;;;;;;;;5036062;28;20071;-60
2021/09/16 00:28:06;;;;;;;18.45;16.65;;;;;;;;;;5039097;28;20553;-57
2021/09/16 00:30:31;;;;;;;16.33;14.82;;;;;;;;;;5034954;28;20032;-63
2021/09/16 00:32:57;;;;;;;17.92;15.80;;;;;;;;;;5034490;28;20029;-58
2021/09/16 00:35:22;;;;;;;17.15;15.18;;;;;;;;;;5036544;28;20475;-57
2021/09/16 00:37:47;;;;;;;17.35;15.60;;;;;;;;;;5036005;28;20034;-60
2021/09/16 00:40:13;;;;;;;15.88;13.93;;;;;;;;;;5067074;28;20119;-64
2021/09/16 00:42:38;;;;;;;21.15;16.05;;;;;;;;;;5033781;28;20636;-60
2021/09/16 00:45:04;;;;;;;17.20;15.45;;;;;;;;;;5035344;28;20017;-60
2021/09/16 00:47:29;;;;;;;18.27;14.82;;;;;;;;;;5034267;28;20476;-61
2021/09/16 00:49:54;;;;;;;17.52;15.95;;;;;;;;;;5035092;28;20024;-63
2021/09/16 00:52:20;;;;;;;19.17;15.80;;;;;;;;;;5036056;28;20021;-62
2021/09/16 00:54:46;;;;;;;16.48;14.73;;;;;;;;;;5034879;28;20029;-62
2021/09/16 00:57:14;;;;;;;17.10;15.32;;;;;;;;;;5033268;28;20033;-59
2021/09/16 00:59:40;;;;;;;18.35;15.75;;;;;;;;;;5034883;28;20037;-61
2021/09/16 01:02:05;;;;;;;17.95;15.48;;;;;;;;;;5034847;28;20036;-59
2021/09/16 01:04:31;;;;;;;17.02;15.32;;;;;;;;;;5034582;28;20036;-62
2021/09/16 01:06:57;;;;;;;16.35;14.75;;;;;;;;;;5035460;28;20032;-60
2021/09/16 01:09:23;;;;;;;16.60;15.10;;;;;;;;;;5034071;28;20021;-62
2021/09/16 01:11:48;;;;;;;17.27;15.05;;;;;;;;;;5034695;28;20021;-63
2021/09/16 01:14:20;;;;;;;17.02;15.32;;;;;;;;;;5034635;28;20036;-63
2021/09/16 01:16:46;;;;;;;17.25;15.43;;;;;;;;;;5035762;28;20112;-60
2021/09/16 01:19:11;;;;;;;15.70;13.95;;;;;;;;;;5035270;28;20144;-60
2021/09/16 01:21:36;;;;;;;19.73;15.23;;;;;;;;;;5034967;28;20032;-62
2021/09/16 01:24:01;;;;;;;20.08;15.30;;;;;;;;;;5034330;28;20033;-59
2021/09/16 01:26:27;;;;;;;17.13;14.63;;;;;;;;;;5031953;28;20038;-64
2021/09/16 01:28:52;;;;;;;17.52;15.75;;;;;;;;;;5035554;28;20480;-62
2021/09/16 01:31:31;;;;;;;15.30;13.80;;;;;;;;;;5034891;28;20036;-63
2021/09/16 01:34:00;;;;;;;17.30;14.20;;;;;;;;;;5036415;28;20025;-62
2021/09/16 01:36:25;;;;;;;16.40;14.70;;;;;;;;;;5032430;28;20474;-62
2021/09/16 01:38:51;;;;;;;17.27;14.40;;;;;;;;;;5034458;28;20112;-58
2021/09/16 01:41:16;;;;;;;15.77;14.18;;;;;;;;;;5034994;28;20378;-64
2021/09/16 01:43:41;;;;;;;15.90;14.23;;;;;;;;;;5035132;28;20029;-60
2021/09/16 01:46:06;;;;;;;15.25;13.45;;;;;;;;;;5036139;28;20100;-60
2021/09/16 01:48:32;;;;;;;17.67;13.70;;;;;;;;;;5032853;28;20033;-63
2021/09/16 01:50:57;;;;;;;16.15;13.20;;;;;;;;;;5035172;28;20060;-60
2021/09/16 01:53:22;;;;;;;15.00;13.43;;;;;;;;;;5033736;28;20675;-61
2021/09/16 01:55:47;;;;;;;15.40;13.45;;;;;;;;;;5033361;28;20420;-61
2021/09/16 01:58:12;;;;;;;15.60;13.98;;;;;;;;;;5031152;28;20025;-62
2021/09/16 02:00:38;;;;;;;15.85;14.20;;;;;;;;;;5036196;28;20064;-62
2021/09/16 02:03:03;;;;;;;14.38;12.98;;;;;;;;;;5032726;28;20021;-62
2021/09/16 02:05:28;;;;;;;13.18;11.88;;;;;;;;;;5034228;28;20029;-60
2021/09/16 02:07:53;;;;;;;15.68;14.00;;;;;;;;;;5041948;28;20128;-58
2021/09/16 02:10:19;;;;;;;16.08;14.48;;;;;;;;;;5034786;28;20029;-60
2021/09/16 02:12:44;;;;;;;15.57;13.98;;;;;;;;;;5036276;28;20025;-63
2021/09/16 02:15:09;;;;;;;15.70;14.13;;;;;;;;;;5031429;28;20053;-57
2021/09/16 02:17:34;;;;;;;15.73;14.02;;;;;;;;;;5033001;28;20025;-61
2021/09/16 02:20:00;;;;;;;17.73;14.77;;;;;;;;;;5033847;28;20025;-58
2021/09/16 02:22:25;;;;;;;16.17;14.63;;;;;;;;;;5035097;28;20029;-61
2021/09/16 02:24:50;;;;;;;18.13;14.13;;;;;;;;;;5034402;28;20092;-59
2021/09/16 02:27:16;;;;;;;15.25;13.63;;;;;;;;;;5034095;28;20024;-61
2021/09/16 02:29:41;;;;;;;16.33;13.75;;;;;;;;;;5034198;28;20025;-62
2021/09/16 02:32:07;;;;;;;13.93;12.40;;;;;;;;;;5031349;28;20222;-63
2021/09/16 02:34:32;;;;;;;15.55;13.43;;;;;;;;;;5032737;28;20053;-62
2021/09/16 02:36:57;;;;;;;15.32;13.10;;;;;;;;;;5032522;28;20045;-59
2021/09/16 02:39:23;;;;;;;14.95;13.50;;;;;;;;;;5032609;28;20059;-62
2021/09/16 02:41:48;;;;;;;15.35;13.75;;;;;;;;;;5032856;28;20105;-60
2021/09/16 02:44:13;;;;;;;15.65;13.98;;;;;;;;;;5033634;28;20031;-63
2021/09/16 02:46:38;;;;;;;15.68;13.55;;;;;;;;;;5033728;28;20121;-60
2021/09/16 02:49:04;;;;;;;14.77;13.27;;;;;;;;;;5032967;28;20041;-60
2021/09/16 02:51:29;;;;;;;14.18;12.77;;;;;;;;;;5034147;28;20049;-62
2021/09/16 02:53:54;;;;;;;16.08;13.57;;;;;;;;;;5032273;28;20029;-63
2021/09/16 02:56:19;;;;;;;14.73;13.30;;;;;;;;;;5035202;28;20025;-60
2021/09/16 02:58:45;;;;;;;17.00;12.40;;;;;;;;;;5030223;28;20449;-59
2021/09/16 03:01:10;;;;;;;14.65;13.18;;;;;;;;;;5033909;28;20030;-61
2021/09/16 03:03:35;;;;;;;14.98;12.48;;;;;;;;;;5034396;28;20108;-60
2021/09/16 03:06:00;;;;;;;18.13;11.90;;;;;;;;;;5033546;28;20029;-60
2021/09/16 03:08:26;;;;;;;16.33;12.30;;;;;;;;;;5031468;28;20025;-59
2021/09/16 03:10:51;;;;;;;16.85;12.30;;;;;;;;;;5034379;28;20506;-62
2021/09/16 03:13:16;;;;;;;17.17;11.98;;;;;;;;;;5032973;28;20116;-60
2021/09/16 03:15:41;;;;;;;12.25;10.98;;;;;;;;;;5031538;28;20030;-62
2021/09/16 03:18:07;;;;;;;13.82;12.32;;;;;;;;;;5031625;28;20052;-61
2021/09/16 03:20:32;;;;;;;13.63;12.23;;;;;;;;;;5032248;28;20037;-63
2021/09/16 03:22:57;;;;;;;12.15;10.85;;;;;;;;;;5035204;28;20040;-61
2021/09/16 03:25:22;;;;;;;12.55;11.27;;;;;;;;;;5030605;28;20347;-62
2021/09/16 03:27:48;;;;;;;12.82;11.40;;;;;;;;;;5031855;28;20032;-62
2021/09/16 03:30:14;;;;;;;12.25;11.15;;;;;;;;;;5032367;28;20376;-62
2021/09/16 03:32:39;;;;;;;12.45;11.15;;;;;;;;;;5033519;28;20088;-63
2021/09/16 03:35:05;;;;;;;11.25;10.18;;;;;;;;;;5032421;28;20057;-62
2021/09/16 03:37:30;;;;;;;12.50;11.30;;;;;;;;;;5032025;28;20047;-59
2021/09/16 03:39:56;;;;;;;12.27;11.05;;;;;;;;;;5033362;28;20030;-62
2021/09/16 03:42:21;;;;;;;14.15;12.73;;;;;;;;;;5033991;28;20021;-59
2021/09/16 03:44:46;;;;;;;11.77;10.68;;;;;;;;;;5032680;28;20032;-60
2021/09/16 03:47:11;;;;;;;11.43;10.32;;;;;;;;;;5031707;28;20028;-62
2021/09/16 03:49:39;;;;;;;12.07;10.85;;;;;;;;;;5032487;28;20036;-61
2021/09/16 03:52:05;;;;;;;12.50;11.27;;;;;;;;;;5035838;28;20044;-58
2021/09/16 03:54:30;;;;;;;13.88;10.93;;;;;;;;;;5036762;28;20023;-62
2021/09/16 03:56:55;;;;;;;11.15;10.05;;;;;;;;;;5036487;28;20035;-61
2021/09/16 03:59:21;;;;;;;10.85;9.85;;;;;;;;;;5036695;28;20029;-59
2021/09/16 04:01:46;;;;;;;12.02;10.63;;;;;;;;;;5039315;28;20108;-59
2021/09/16 04:04:11;;;;;;;11.90;10.27;;;;;;;;;;5035683;28;20033;-60
2021/09/16 04:06:36;;;;;;;12.18;10.27;;;;;;;;;;5036089;28;20461;-61
2021/09/16 04:09:02;;;;;;;18.15;10.88;;;;;;;;;;5036089;28;20033;-63
2021/09/16 04:11:27;;;;;;;12.23;11.02;;;;;;;;;;5035348;28;20037;-62
2021/09/16 04:13:52;;;;;;;12.23;10.95;;;;;;;;;;5035419;28;20491;-62
2021/09/16 04:16:18;;;;;;;11.10;9.90;;;;;;;;;;5036381;28;20025;-62
2021/09/16 04:18:43;;;;;;;13.93;10.45;;;;;;;;;;5035758;28;20112;-61
2021/09/16 04:21:08;;;;;;;12.35;10.25;;;;;;;;;;5037137;28;20642;-64
2021/09/16 04:23:33;;;;;;;11.45;10.13;;;;;;;;;;5037100;28;20043;-61
2021/09/16 04:25:59;;;;;;;11.90;9.95;;;;;;;;;;5036816;28;20116;-61
2021/09/16 04:28:24;;;;;;;11.60;9.77;;;;;;;;;;5037278;28;20029;-63
2021/09/16 04:30:49;;;;;;;13.95;9.98;;;;;;;;;;5037496;28;20028;-64
2021/09/16 04:33:14;;;;;;;10.15;9.10;;;;;;;;;;5034062;28;20028;-62
2021/09/16 04:35:40;;;;;;;11.50;9.38;;;;;;;;;;5036533;28;20045;-62
2021/09/16 04:38:05;;;;;;;11.35;10.07;;;;;;;;;;5036291;28;20048;-62
2021/09/16 04:40:31;;;;;;;11.10;9.15;;;;;;;;;;5037241;28;20120;-62
2021/09/16 04:42:56;;;;;;;11.13;9.77;;;;;;;;;;5033097;28;20423;-62
2021/09/16 04:45:21;;;;;;;14.00;9.45;;;;;;;;;;5037659;28;20226;-65
2021/09/16 04:47:46;;;;;;;9.60;8.60;;;;;;;;;;5035901;28;20033;-62
2021/09/16 04:50:12;;;;;;;10.30;9.15;;;;;;;;;;5034943;28;20025;-64
2021/09/16 04:52:38;;;;;;;9.57;8.57;;;;;;;;;;5035082;28;20474;-63
2021/09/16 04:55:04;;;;;;;11.60;10.48;;;;;;;;;;5033393;28;20046;-62
2021/09/16 04:57:29;;;;;;;11.32;10.13;;;;;;;;;;5034746;28;20033;-61
2021/09/16 04:59:55;;;;;;;10.00;9.02;;;;;;;;;;5035711;28;20060;-64
2021/09/16 05:02:20;;;;;;;9.45;8.45;;;;;;;;;;5037403;28;20086;-64
2021/09/16 05:04:45;;;;;;;9.20;8.35;;;;;;;;;;5035096;28;20029;-58
2021/09/16 05:07:11;;;;;;;10.27;9.35;;;;;;;;;;5032497;28;20049;-60
2021/09/16 05:09:36;;;;;;;10.50;9.13;;;;;;;;;;5035196;28;20079;-63
2021/09/16 05:12:01;;;;;;;9.98;8.82;;;;;;;;;;5037657;28;20165;-63
2021/09/16 05:14:27;;;;;;;10.57;9.48;;;;;;;;;;5035718;28;20402;-61
2021/09/16 05:16:52;;;;;;;9.90;8.90;;;;;;;;;;5035826;28;20033;-64
2021/09/16 05:19:18;;;;;;;9.48;8.57;;;;;;;;;;5034144;28;20480;-57
2021/09/16 05:21:43;;;;;;;9.88;8.90;;;;;;;;;;5031465;28;20017;-59
2021/09/16 05:24:09;;;;;;;9.60;8.55;;;;;;;;;;5033114;28;20438;-61
2021/09/16 05:26:35;;;;;;;9.02;8.18;;;;;;;;;;5033340;28;20032;-61
2021/09/16 05:29:00;;;;;;;10.52;9.25;;;;;;;;;;5036292;28;20021;-61
2021/09/16 05:31:25;;;;;;;9.73;8.75;;;;;;;;;;5034655;28;20099;-58
2021/09/16 05:33:50;;;;;;;9.65;8.10;;;;;;;;;;5035326;28;20036;-61
2021/09/16 05:36:15;;;;;;;9.00;8.10;;;;;;;;;;5031438;28;20051;-61
2021/09/16 05:38:41;;;;;;;9.20;8.30;;;;;;;;;;5032571;28;20044;-63
2021/09/16 05:41:06;;;;;;;9.50;8.55;;;;;;;;;;5032493;28;20025;-63
2021/09/16 05:43:31;;;;;;;9.38;8.48;;;;;;;;;;5035527;28;20378;-63
2021/09/16 05:45:56;;;;;;;8.40;7.50;;;;;;;;;;5032733;28;20039;-61
2021/09/16 05:48:23;;;;;;;11.38;7.97;;;;;;;;;;5031406;28;20039;-63
2021/09/16 05:50:48;;;;;;;9.63;8.82;;;;;;;;;;5034257;28;20078;-63
2021/09/16 05:53:14;;;;;;;9.88;8.10;;;;;;;;;;5034105;28;20084;-59
2021/09/16 05:55:40;;;;;;;9.82;8.82;;;;;;;;;;5035883;28;20029;-62
2021/09/16 05:58:06;;;;;;;9.27;8.35;;;;;;;;;;5033599;28;20032;-62
2021/09/16 06:00:31;;;;;;;11.93;8.68;;;;;;;;;;5033132;28;20404;-62
2021/09/16 06:02:56;;;;;;;9.50;7.93;;;;;;;;;;5034143;28;20020;-62
2021/09/16 06:05:22;;;;;;;9.77;8.68;;;;;;;;;;5032763;28;20037;-63
2021/09/16 06:07:47;;;;;;;9.07;8.27;;;;;;;;;;5033151;28;20037;-62
2021/09/16 06:10:12;;;;;;;13.35;8.23;;;;;;;;;;5034058;28;20496;-62
2021/09/16 06:12:38;;;;;;;10.43;7.75;;;;;;;;;;5032355;28;20082;-62
2021/09/16 06:15:03;;;;;;;9.50;8.27;;;;;;;;;;5031901;28;20122;-62
2021/09/16 06:17:28;;;;;;;11.00;7.75;;;;;;;;;;5031764;28;20116;-64
2021/09/16 06:19:54;;;;;;;8.07;7.38;;;;;;;;;;5030757;28;20021;-63
2021/09/16 06:22:19;;;;;;;8.40;7.53;;;;;;;;;;5030958;28;20063;-63
2021/09/16 06:24:44;;;;;;;9.85;7.80;;;;;;;;;;5033473;28;20025;-63
2021/09/16 06:27:10;;;;;;;9.10;7.50;;;;;;;;;;5032913;28;20028;-62
2021/09/16 06:29:35;;;;;;;9.32;7.32;;;;;;;;;;5032856;28;20303;-63
2021/09/16 06:32:00;;;;;;;10.13;8.23;;;;;;;;;;5035141;28;20505;-58
2021/09/16 06:34:26;;;;;;;9.73;7.70;;;;;;;;;;5032288;28;20029;-60
2021/09/16 06:36:51;;;;;;;9.50;8.23;;;;;;;;;;5032375;28;20041;-59
2021/09/16 06:39:16;;;;;;;8.55;7.72;;;;;;;;;;5033494;28;20462;-59
2021/09/16 06:41:42;;;;;;;7.55;6.85;;;;;;;;;;5032863;28;20030;-60
2021/09/16 06:44:07;;;;;;;7.30;6.60;;;;;;;;;;5033097;28;20036;-58
2021/09/16 06:46:32;;;;;;;12.32;7.70;;;;;;;;;;5035834;28;20020;-60
2021/09/16 06:48:57;;;;;;;10.65;7.82;;;;;;;;;;5032140;28;20108;-57
2021/09/16 06:51:23;;;;;;;7.60;6.75;;;;;;;;;;5032393;28;20017;-56
2021/09/16 06:53:48;;;;;;;9.57;7.05;;;;;;;;;;5035999;28;20028;-55
2021/09/16 06:56:13;;;;;;;7.10;6.50;;;;;;;;;;5033876;28;20259;-60
2021/09/16 06:58:38;;;;;;;7.72;6.95;;;;;;;;;;5033289;28;20449;-60
2021/09/16 07:01:03;;;;;;;7.28;6.57;;;;;;;;;;5034958;28;20036;-61
2021/09/16 07:03:29;;;;;;;6.85;6.30;;;;;;;;;;5033061;28;20049;-59
2021/09/16 07:05:54;;;;;;;7.13;6.53;;;;;;;;;;5034289;28;20520;-60
2021/09/16 07:08:19;;;;;;;7.72;6.93;;;;;;;;;;5033079;28;20395;-63
2021/09/16 07:10:44;;;;;;;6.43;5.65;;;;;;;;;;5032658;28;20361;-58
2021/09/16 07:13:10;;;;;;;8.77;6.13;;;;;;;;;;5031454;28;20251;-59
2021/09/16 07:15:35;;;;;;;7.18;6.47;;;;;;;;;;5032273;28;20023;-57
2021/09/16 07:18:01;;;;;;;8.52;6.70;;;;;;;;;;5032603;28;20033;-58
2021/09/16 07:20:26;;;;;;;8.63;7.85;;;;;;;;;;5032241;28;20489;-59
2021/09/16 07:22:51;;;;;;;6.68;6.07;;;;;;;;;;5031254;28;20033;-55
2021/09/16 07:25:16;;;;;;;6.80;6.20;;;;;;;;;;5032761;28;20350;-58
2021/09/16 07:27:42;;;;;;;7.63;6.85;;;;;;;;;;5037055;28;20029;-56
2021/09/16 07:30:08;;;;;;;6.22;5.78;;;;;;;;;;5036074;28;20071;-59
2021/09/16 07:32:33;;;;;;;7.95;6.82;;;;;;;;;;5037012;28;20370;-59
2021/09/16 07:34:59;;;;;;;7.03;6.43;;;;;;;;;;5033799;28;20475;-59
2021/09/16 07:37:24;;;;;;;7.75;7.00;;;;;;;;;;5035188;28;20500;-60
2021/09/16 07:39:50;;;;;;;6.95;6.35;;;;;;;;;;5035310;28;20029;-59
2021/09/16 07:42:15;;;;;;;10.32;7.68;;;;;;;;;;5036039;28;20021;-57
2021/09/16 07:44:40;;;;;;;7.43;6.72;;;;;;;;;;5035656;28;20022;-62
2021/09/16 07:47:06;;;;;;;8.07;7.28;;;;;;;;;;5035798;28;20112;-61
2021/09/16 07:49:31;;;;;;;6.38;5.88;;;;;;;;;;5034365;28;20083;-59
2021/09/16 07:51:56;;;;;;;7.65;6.43;;;;;;;;;;5036347;28;20025;-61
2021/09/16 07:54:21;;;;;;;8.15;6.10;;;;;;;;;;5035899;28;20366;-58
2021/09/16 07:56:47;;;;;;;6.35;5.85;;;;;;;;;;5034868;28;20021;-58
2021/09/16 07:59:12;;;;;;;7.18;6.60;;;;;;;;;;5035940;28;20017;-60
2021/09/16 08:01:37;;;;;;;10.70;6.70;;;;;;;;;;5036107;28;20457;-60
2021/09/16 08:04:03;;;;;;;6.38;5.88;;;;;;;;;;5035527;28;20409;-60
2021/09/16 08:06:28;;;;;;;6.55;6.03;;;;;;;;;;5038071;28;20718;-60
2021/09/16 08:08:54;;;;;;;12.73;6.25;;;;;;;;;;5036179;28;20048;-59
2021/09/16 08:11:19;;;;;;;7.85;5.65;;;;;;;;;;5037069;28;20430;-59
2021/09/16 08:13:44;;;;;;;9.32;7.65;;;;;;;;;;5036388;28;20025;-58
2021/09/16 08:16:10;;;;;;;6.20;5.70;;;;;;;;;;5045545;28;20071;-55
2021/09/16 08:18:35;;;;;;;7.95;6.05;;;;;;;;;;5036581;28;20032;-53
2021/09/16 08:21:01;;;;;;;7.07;6.45;;;;;;;;;;5037914;28;20025;-58
2021/09/16 08:23:26;;;;;;;7.07;5.38;;;;;;;;;;5035937;28;20032;-58
2021/09/16 08:25:51;;;;;;;6.22;5.63;;;;;;;;;;5036418;28;20028;-58
2021/09/16 08:28:17;;;;;;;7.18;5.78;;;;;;;;;;5036362;28;20128;-59
2021/09/16 08:30:42;;;;;;;5.78;5.32;;;;;;;;;;5034137;28;20124;-58
2021/09/16 08:33:08;;;;;;;6.40;5.78;;;;;;;;;;5035861;28;20034;-61
2021/09/16 08:35:33;;;;;;;9.15;5.85;;;;;;;;;;5035270;28;20506;-58
2021/09/16 08:37:59;;;;;;;5.47;4.95;;;;;;;;;;5035223;28;20033;-59
2021/09/16 08:40:24;;;;;;;7.80;5.30;;;;;;;;;;5035573;28;20029;-59
2021/09/16 08:42:50;;;;;;;5.55;4.95;;;;;;;;;;5034965;28;20055;-57
2021/09/16 08:45:16;;;;;;;4.72;4.32;;;;;;;;;;5033944;28;20481;-59
2021/09/16 08:47:43;;;;;;;5.07;4.57;;;;;;;;;;5035714;28;20103;-58
2021/09/16 08:50:09;;;;;;;4.57;4.13;;;;;;;;;;5036402;28;20592;-59
2021/09/16 08:52:37;;;;;;;4.53;4.13;;;;;;;;;;5035669;28;20030;-56
2021/09/16 08:55:06;;;;;;;5.03;4.30;;;;;;;;;;5034186;28;20027;-57
2021/09/16 08:57:36;;;;;;;5.07;4.68;;;;;;;;;;5035536;28;20025;-59
2021/09/16 09:00:04;;;;;;;4.88;4.45;;;;;;;;;;5034004;28;20455;-60
2021/09/16 09:02:29;;;;;;;4.70;4.40;;;;;;;;;;5035326;28;20025;-59
2021/09/16 09:04:55;;;;;;;5.22;4.80;;;;;;;;;;5035483;28;20025;-61
2021/09/16 09:07:20;;;;;;;5.82;4.70;;;;;;;;;;5034973;28;20469;-59
2021/09/16 09:09:46;;;;;;;4.80;4.18;;;;;;;;;;5034308;28;20326;-57
2021/09/16 09:12:17;;;;;;;4.95;4.45;;;;;;;;;;5036263;28;20030;-62
2021/09/16 09:14:47;;;;;;;5.07;4.53;;;;;;;;;;5034847;28;20171;-62
2021/09/16 09:17:16;;;;;;;4.75;4.35;;;;;;;;;;5036392;28;20172;-62
2021/09/16 09:19:41;;;;;;;4.95;4.55;;;;;;;;;;5035344;28;20069;-63
2021/09/16 09:22:07;;;;;;;5.13;4.72;;;;;;;;;;5035345;28;20024;-64
2021/09/16 09:24:35;;;;;;;5.28;4.88;;;;;;;;;;5035381;28;20029;-62
2021/09/16 09:27:02;;;;;;;4.80;4.40;;;;;;;;;;5036045;28;20029;-62
2021/09/16 09:29:28;;;;;;;5.43;4.90;;;;;;;;;;5035536;28;20055;-62
2021/09/16 09:31:53;;;;;;;4.85;4.55;;;;;;;;;;5035485;28;20141;-62
2021/09/16 09:34:26;;;;;;;5.32;5.03;;;;;;;;;;5034952;28;20108;-64
2021/09/16 09:36:52;;;;;;;5.00;4.60;;;;;;;;;;5035874;28;20489;-63
2021/09/16 09:39:26;;;;;;;5.80;5.28;;;;;;;;;;5038344;28;20080;-61
2021/09/16 09:41:52;;;;;;;5.18;4.78;;;;;;;;;;5033917;28;20025;-60
2021/09/16 09:44:17;;;;;;;6.30;5.82;;;;;;;;;;5036332;28;20032;-60
2021/09/16 09:46:42;;;;;;;5.30;4.90;;;;;;;;;;5035175;28;20036;-61
2021/09/16 09:49:09;;;;;;;6.50;5.90;;;;;;;;;;5036321;28;20031;-57
2021/09/16 09:51:40;;;;;;;5.78;5.25;;;;;;;;;;5036891;28;20390;-59
2021/09/16 09:54:32;;;;;;;4.90;4.45;;;;;;;;;;5033996;28;20030;-61
2021/09/16 09:57:16;;;;;;;4.50;4.10;;;;;;;;;;5032365;28;20386;-59
2021/09/16 09:59:53;;;;;;;6.38;5.05;;;;;;;;;;5035139;28;20043;-60
2021/09/16 10:02:19;;;;;;;4.90;4.50;;;;;;;;;;5031381;28;20108;-60
2021/09/16 10:04:44;;;;;;;4.88;4.47;;;;;;;;;;5031766;28;20856;-60
2021/09/16 10:07:25;;;;;;;5.47;4.97;;;;;;;;;;5033286;28;20106;-59
2021/09/16 10:09:57;;;;;;;5.57;5.05;;;;;;;;;;5035162;28;20158;-60
2021/09/16 10:12:22;;;;;;;5.65;5.15;;;;;;;;;;5034296;28;20037;-59
2021/09/16 10:14:47;;;;;;;5.25;4.78;;;;;;;;;;5036100;28;20054;-61
2021/09/16 10:17:12;;;;;;;5.82;4.95;;;;;;;;;;5038017;28;20037;-64
2021/09/16 10:19:40;;;;;;;5.60;5.20;;;;;;;;;;5033348;28;20113;-62
2021/09/16 10:22:07;;;;;;;5.68;5.13;;;;;;;;;;5035846;28;20033;-63
2021/09/16 10:24:32;;;;;;;5.60;5.20;;;;;;;;;;5034739;28;20032;-61
2021/09/16 10:26:58;;;;;;;6.03;5.13;;;;;;;;;;5034928;28;20029;-62
2021/09/16 10:29:29;;;;;;;5.43;5.07;;;;;;;;;;5033387;28;20075;-62
2021/09/16 10:32:00;;;;;;;5.88;5.38;;;;;;;;;;5033110;28;20034;-60
2021/09/16 10:34:40;;;;;;;6.05;5.40;;;;;;;;;;5033339;28;20572;-61
2021/09/16 10:37:09;;;;;;;5.50;4.85;;;;;;;;;;5034599;28;20045;-61
2021/09/16 10:39:36;;;;;;;4.65;4.35;;;;;;;;;;5033001;28;20047;-59
2021/09/16 10:42:02;;;;;;;5.05;4.65;;;;;;;;;;5031586;28;20448;-63
2021/09/16 10:44:27;;;;;;;4.88;4.47;;;;;;;;;;5034280;28;20061;-64
2021/09/16 10:46:59;;;;;;;5.10;4.18;;;;;;;;;;5033895;28;20540;-64
2021/09/16 10:49:26;;;;;;;5.60;5.03;;;;;;;;;;5034616;28;20461;-63
2021/09/16 10:51:56;;;;;;;5.13;4.63;;;;;;;;;;5031418;28;20036;-64
2021/09/16 10:54:27;;;;;;;4.97;4.43;;;;;;;;;;5034204;28;20061;-63
2021/09/16 10:57:11;;;;;;;5.43;5.03;;;;;;;;;;5034443;28;20039;-62
2021/09/16 10:59:52;;;;;;;5.13;4.72;;;;;;;;;;5034226;28;20041;-60
2021/09/16 11:02:19;;;;;;;4.65;4.25;;;;;;;;;;5035377;28;20086;-62
2021/09/16 11:04:57;;;;;;;5.43;4.97;;;;;;;;;;5034954;28;20029;-61
2021/09/16 11:07:31;;;;;;;4.25;3.95;;;;;;;;;;5034430;28;20044;-60
2021/09/16 11:09:57;;;;;;;4.63;4.28;;;;;;;;;;5032969;28;20032;-60
2021/09/16 11:12:31;;;;;;;5.13;4.43;;;;;;;;;;5033601;28;20021;-59
2021/09/16 11:14:57;;;;;;;4.90;4.60;;;;;;;;;;5033746;28;20029;-60
2021/09/16 11:17:26;;;;;;;5.38;4.88;;;;;;;;;;5032451;28;20040;-57
2021/09/16 11:19:51;;;;;;;4.85;4.45;;;;;;;;;;5032393;28;20029;-58
2021/09/16 11:22:22;;;;;;;5.32;4.93;;;;;;;;;;5033842;28;20188;-56
2021/09/16 11:24:48;;;;;;;5.30;4.90;;;;;;;;;;5033449;28;20025;-59
2021/09/16 11:27:21;;;;;;;5.10;4.80;;;;;;;;;;5031820;28;20037;-59
2021/09/16 11:29:47;;;;;;;4.97;4.25;;;;;;;;;;5033198;28;20025;-58
2021/09/16 11:32:14;;;;;;;4.72;4.22;;;;;;;;;;5032116;28;20032;-62
2021/09/16 11:34:54;;;;;;;4.85;4.35;;;;;;;;;;5032057;28;20373;-61
2021/09/16 11:37:22;;;;;;;4.47;4.15;;;;;;;;;;5030377;28;20121;-61
2021/09/16 11:39:58;;;;;;;4.15;3.85;;;;;;;;;;5034646;28;20036;-61
2021/09/16 11:42:23;;;;;;;4.45;3.97;;;;;;;;;;5031568;28;20064;-61
2021/09/16 11:44:58;;;;;;;4.85;4.43;;;;;;;;;;5032443;28;20061;-61
2021/09/16 11:47:23;;;;;;;5.25;4.65;;;;;;;;;;5033812;28;20700;-66
2021/09/16 11:49:49;;;;;;;6.85;4.82;;;;;;;;;;5032498;28;20070;-59
2021/09/16 11:52:19;;;;;;;5.22;4.78;;;;;;;;;;5032267;28;20025;-58
2021/09/16 11:55:03;;;;;;;4.75;4.35;;;;;;;;;;5033494;28;20029;-60
2021/09/16 11:57:29;;;;;;;5.10;4.80;;;;;;;;;;5032327;28;20033;-60
2021/09/16 11:59:54;;;;;;;5.82;5.43;;;;;;;;;;5033382;28;20902;-59
2021/09/16 12:02:19;;;;;;;5.35;4.95;;;;;;;;;;5032274;28;20017;-60
2021/09/16 12:04:46;;;;;;;5.78;5.38;;;;;;;;;;5033783;28;20021;-59
2021/09/16 12:07:15;;;;;;;6.00;5.50;;;;;;;;;;5035277;28;20041;-61
2021/09/16 12:09:40;;;;;;;5.32;4.93;;;;;;;;;;5038812;28;20396;-58
2021/09/16 12:12:05;;;;;;;6.90;5.63;;;;;;;;;;5031340;28;20017;-60
2021/09/16 12:14:31;;;;;;;6.80;6.15;;;;;;;;;;5038708;28;20072;-67
2021/09/16 12:17:03;;;;;;;5.57;5.13;;;;;;;;;;5036627;28;20107;-60
2021/09/16 12:19:28;;;;;;;7.93;5.97;;;;;;;;;;5037095;28;20071;-57
2021/09/16 12:21:56;;;;;;;6.18;5.68;;;;;;;;;;5036701;28;20025;-58
2021/09/16 12:24:26;;;;;;;7.72;6.32;;;;;;;;;;5036865;28;20453;-60
2021/09/16 12:26:52;;;;;;;8.45;6.40;;;;;;;;;;5037907;28;20021;-59
2021/09/16 12:29:28;;;;;;;6.60;6.10;;;;;;;;;;5036622;28;20458;-61
2021/09/16 12:31:56;;;;;;;8.63;6.57;;;;;;;;;;5037210;28;20027;-64
2021/09/16 12:34:22;;;;;;;7.65;6.90;;;;;;;;;;5035375;28;20025;-60
2021/09/16 12:36:52;;;;;;;6.97;6.30;;;;;;;;;;5035326;28;20060;-61
2021/09/16 12:39:17;;;;;;;6.90;6.20;;;;;;;;;;5037931;28;20431;-61
2021/09/16 12:41:49;;;;;;;6.82;6.38;;;;;;;;;;5038578;28;20025;-60
2021/09/16 12:44:18;;;;;;;6.40;5.80;;;;;;;;;;5037306;28;20027;-60
2021/09/16 12:46:46;;;;;;;6.43;5.55;;;;;;;;;;5032658;28;20044;-59
2021/09/16 12:49:25;;;;;;;9.43;5.85;;;;;;;;;;5036655;28;20025;-58
2021/09/16 12:51:54;;;;;;;8.05;7.30;;;;;;;;;;5036446;28;20040;-58
2021/09/16 12:54:20;;;;;;;7.70;6.88;;;;;;;;;;5036123;28;20029;-60
2021/09/16 12:56:45;;;;;;;5.80;5.30;;;;;;;;;;5035657;28;20458;-58
2021/09/16 12:59:21;;;;;;;5.15;4.80;;;;;;;;;;5033853;28;20555;-59
2021/09/16 13:01:47;;;;;;;6.40;5.20;;;;;;;;;;5036382;28;20029;-58
2021/09/16 13:04:13;;;;;;;5.70;5.05;;;;;;;;;;5035228;28;20030;-60
2021/09/16 13:06:38;;;;;;;5.57;5.18;;;;;;;;;;5033820;28;20037;-59
2021/09/16 13:09:03;;;;;;;8.57;4.85;;;;;;;;;;5035352;28;20060;-60
2021/09/16 13:11:29;;;;;;;5.40;5.00;;;;;;;;;;5035082;28;20591;-63
2021/09/16 13:14:04;;;;;;;5.57;5.10;;;;;;;;;;5034340;28;20147;-60
2021/09/16 13:16:30;;;;;;;7.40;4.78;;;;;;;;;;5033554;28;20577;-61
2021/09/16 13:18:55;;;;;;;5.55;5.00;;;;;;;;;;5034170;28;20112;-59
2021/09/16 13:21:20;;;;;;;6.82;5.50;;;;;;;;;;5036136;28;20112;-58
2021/09/16 13:23:46;;;;;;;5.63;5.10;;;;;;;;;;5033412;28;20564;-57
2021/09/16 13:26:11;;;;;;;5.82;5.32;;;;;;;;;;5034857;28;20121;-59
2021/09/16 13:28:36;;;;;;;5.50;5.10;;;;;;;;;;5035809;28;20112;-60
2021/09/16 13:31:02;;;;;;;5.47;5.07;;;;;;;;;;5034682;28;20461;-58
2021/09/16 13:33:27;;;;;;;8.75;4.97;;;;;;;;;;5036273;28;20024;-58
2021/09/16 13:35:52;;;;;;;5.45;4.95;;;;;;;;;;5033940;28;20595;-60
2021/09/16 13:38:17;;;;;;;8.77;5.72;;;;;;;;;;5035372;28;20090;-60
2021/09/16 13:40:43;;;;;;;6.00;5.05;;;;;;;;;;5034733;28;20028;-57
2021/09/16 13:43:08;;;;;;;6.18;5.60;;;;;;;;;;5033244;28;20052;-57
2021/09/16 13:45:34;;;;;;;6.40;5.82;;;;;;;;;;5034045;28;20445;-59
2021/09/16 13:47:59;;;;;;;7.40;5.93;;;;;;;;;;5033940;28;20033;-58
2021/09/16 13:50:24;;;;;;;7.57;6.97;;;;;;;;;;5035379;28;20483;-63
2021/09/16 13:52:50;;;;;;;5.97;5.57;;;;;;;;;;5036342;28;20106;-60
2021/09/16 13:55:15;;;;;;;7.03;5.82;;;;;;;;;;5033662;28;20029;-61
2021/09/16 13:57:41;;;;;;;5.25;4.80;;;;;;;;;;5036143;28;20584;-62
2021/09/16 14:00:07;;;;;;;7.55;5.50;;;;;;;;;;5033054;28;20032;-60
2021/09/16 14:02:33;;;;;;;6.22;5.60;;;;;;;;;;5034013;28;20020;-61
2021/09/16 14:04:58;;;;;;;6.85;6.00;;;;;;;;;;5033914;28;20449;-62
2021/09/16 14:07:23;;;;;;;6.72;6.03;;;;;;;;;;5032719;28;20033;-61
2021/09/16 14:09:49;;;;;;;6.43;5.82;;;;;;;;;;5033749;28;20021;-60
2021/09/16 14:12:15;;;;;;;7.28;6.68;;;;;;;;;;5034821;28;20032;-62
2021/09/16 14:14:40;;;;;;;7.07;6.25;;;;;;;;;;5032915;28;20017;-60
2021/09/16 14:17:05;;;;;;;8.77;7.78;;;;;;;;;;5036058;28;20041;-62
2021/09/16 14:19:31;;;;;;;7.75;7.05;;;;;;;;;;5034795;28;20502;-61
2021/09/16 14:21:56;;;;;;;8.38;7.60;;;;;;;;;;5032424;28;20017;-62
2021/09/16 14:24:22;;;;;;;9.48;7.45;;;;;;;;;;5032409;28;20025;-62
2021/09/16 14:26:47;;;;;;;8.07;7.18;;;;;;;;;;5034534;28;20021;-63
2021/09/16 14:29:12;;;;;;;9.77;8.77;;;;;;;;;;5033445;28;20160;-62